地図

経路データ

SID SEASON NUMBER BASIN SUBBASIN NAME ISO_TIME NATURE LAT LON WMO_WIND WMO_PRES WMO_AGENCY TRACK_TYPE DIST2LAND LANDFALL IFLAG USA_AGENCY USA_ATCF_ID USA_LAT USA_LON USA_RECORD USA_STATUS USA_WIND USA_PRES USA_SSHS USA_R34_NE USA_R34_SE USA_R34_SW USA_R34_NW USA_R50_NE USA_R50_SE USA_R50_SW USA_R50_NW USA_R64_NE USA_R64_SE USA_R64_SW USA_R64_NW USA_POCI USA_ROCI USA_RMW USA_EYE TOKYO_LAT TOKYO_LON TOKYO_GRADE TOKYO_WIND TOKYO_PRES TOKYO_R50_DIR TOKYO_R50_LONG TOKYO_R50_SHORT TOKYO_R30_DIR TOKYO_R30_LONG TOKYO_R30_SHORT TOKYO_LAND CMA_LAT CMA_LON CMA_CAT CMA_WIND CMA_PRES HKO_LAT HKO_LON HKO_CAT HKO_WIND HKO_PRES NEWDELHI_LAT NEWDELHI_LON NEWDELHI_GRADE NEWDELHI_WIND NEWDELHI_PRES NEWDELHI_CI NEWDELHI_DP NEWDELHI_POCI REUNION_LAT REUNION_LON REUNION_TYPE REUNION_WIND REUNION_PRES REUNION_TNUM REUNION_CI REUNION_RMW REUNION_R34_NE REUNION_R34_SE REUNION_R34_SW REUNION_R34_NW REUNION_R50_NE REUNION_R50_SE REUNION_R50_SW REUNION_R50_NW REUNION_R64_NE REUNION_R64_SE REUNION_R64_SW REUNION_R64_NW BOM_LAT BOM_LON BOM_TYPE BOM_WIND BOM_PRES BOM_TNUM BOM_CI BOM_RMW BOM_R34_NE BOM_R34_SE BOM_R34_SW BOM_R34_NW BOM_R50_NE BOM_R50_SE BOM_R50_SW BOM_R50_NW BOM_R64_NE BOM_R64_SE BOM_R64_SW BOM_R64_NW BOM_ROCI BOM_POCI BOM_EYE BOM_POS_METHOD BOM_PRES_METHOD NADI_LAT NADI_LON NADI_CAT NADI_WIND NADI_PRES WELLINGTON_LAT WELLINGTON_LON WELLINGTON_WIND WELLINGTON_PRES DS824_LAT DS824_LON DS824_STAGE DS824_WIND DS824_PRES TD9636_LAT TD9636_LON TD9636_STAGE TD9636_WIND TD9636_PRES TD9635_LAT TD9635_LON TD9635_WIND TD9635_PRES TD9635_ROCI NEUMANN_LAT NEUMANN_LON NEUMANN_CLASS NEUMANN_WIND NEUMANN_PRES MLC_LAT MLC_LON MLC_CLASS MLC_WIND MLC_PRES USA_GUST BOM_GUST BOM_GUST_PER REUNION_GUST REUNION_GUST_PER USA_SEAHGT USA_SEARAD_NE USA_SEARAD_SE USA_SEARAD_SW USA_SEARAD_NW STORM_SPEED STORM_DIR
1975357N07116 1975 147 WP MM NOT_NAMED 1975-12-23 06:00:00 TS 7.00000 115.500 main 118 118 __O___________ -1 7.00000 115.500 0 19 1006 2 0
1975357N07116 1975 147 WP MM NOT_NAMED 1975-12-23 09:00:00 TS 7.10000 115.512 main 125 125 __P___________ -1 7.10000 115.512 0 19 1006 2 8
1975357N07116 1975 147 WP MM NOT_NAMED 1975-12-23 12:00:00 TS 7.20000 115.500 main 133 133 __O___________ -1 7.20000 115.500 0 19 1006 2 343
1975357N07116 1975 147 WP MM NOT_NAMED 1975-12-23 15:00:00 TS 7.30000 115.450 main 138 138 __P___________ -1 7.30000 115.450 0 19 1006 2 333
1975357N07116 1975 147 WP MM NOT_NAMED 1975-12-23 18:00:00 TS 7.40000 115.400 main 154 154 __O___________ -1 7.40000 115.400 0 19 1006 2 343
1975357N07116 1975 147 WP MM NOT_NAMED 1975-12-23 21:00:00 TS 7.50000 115.400 main 158 158 __P___________ -1 7.50000 115.400 0 19 1006 2 8
1975357N07116 1975 147 WP MM NOT_NAMED 1975-12-24 00:00:00 TS 7.60000 115.400 main 163 163 __O___________ -1 7.60000 115.400 0 19 1006 2 343
1975357N07116 1975 147 WP MM NOT_NAMED 1975-12-24 03:00:00 TS 7.70000 115.350 main 169 169 __P___________ -1 7.70000 115.350 0 21 1005 2 333
1975357N07116 1975 147 WP MM NOT_NAMED 1975-12-24 06:00:00 TS 7.80000 115.300 main 184 184 __O___________ -1 7.80000 115.300 1 23 1005 2 343
1975357N07116 1975 147 WP MM NOT_NAMED 1975-12-24 09:00:00 TS 7.88500 115.293 main 190 190 __P___________ -1 7.88500 115.293 1 23 1005 2 8
1975357N07116 1975 147 WP MM NOT_NAMED 1975-12-24 12:00:00 TS 8.00000 115.300 main 197 197 __O___________ -1 8.00000 115.300 1 23 1005 3 0
1975357N07116 1975 147 WP MM NOT_NAMED 1975-12-24 15:00:00 TS 8.19250 115.307 main 209 209 __P___________ -1 8.19250 115.307 1 23 1004 4 0
1975357N07116 1975 147 WP MM NOT_NAMED 1975-12-24 18:00:00 TS 8.40000 115.300 main 209 209 __O___________ -1 8.40000 115.300 1 23 1004 4 352
1975357N07116 1975 147 WP MM NOT_NAMED 1975-12-24 21:00:00 TS 8.55750 115.250 main 211 211 __P___________ -1 8.55750 115.250 1 23 1004 3 343
1975357N07116 1975 147 WP MM NOT_NAMED 1975-12-25 00:00:00 TS 8.70000 115.200 main 224 224 __O___________ -1 8.70000 115.200 1 23 1004 3 349
1975357N07116 1975 147 WP MM NOT_NAMED 1975-12-25 03:00:00 TS 8.83500 115.200 main 227 219 __P___________ -1 8.83500 115.200 1 23 1004 4 13
1975357N07116 1975 147 WP MM NOT_NAMED 1975-12-25 06:00:00 TS 9.10000 115.300 1006 tokyo main 226 226 _OO___________ -1 9.50000 115.700 2 1006 0 0 0 9.00000 115.200 1 23 1004 6 349
1975357N07116 1975 147 WP MM NOT_NAMED 1975-12-25 09:00:00 TS 9.40687 115.085 main 257 257 _PP___________ -1 9.75061 114.910 2 1006 0 0 9.23499 115.172 1 26 1002 8 321
1975357N07116 1975 147 WP MM NOT_NAMED 1975-12-25 12:00:00 TS 9.71429 114.800 1006 tokyo main 301 301 _OO___________ -1 10.0000 114.400 2 1006 0 0 0 9.50000 115.100 1 29 1000 7 325
1975357N07116 1975 147 WP MM NOT_NAMED 1975-12-25 15:00:00 TS 9.99985 114.667 main 325 325 _PP___________ -1 10.2498 114.332 2 1005 0 0 9.74993 115.002 1 29 1000 6 340
1975357N07116 1975 147 WP MM NOT_NAMED 1975-12-25 18:00:00 TS 10.2500 114.600 1004 tokyo main 352 352 _OO___________ -1 10.5000 114.400 2 1004 0 0 0 10.0000 114.800 1 29 1000 6 326
1975357N07116 1975 147 WP MM NOT_NAMED 1975-12-25 21:00:00 TS 10.5188 114.311 main 392 392 _PP___________ -1 10.7726 114.200 2 1003 0 0 10.2651 114.423 1 33 999 11 307
1975357N07116 1975 147 WP MM NOT_NAMED 1975-12-26 00:00:00 TS 10.9000 113.733 1002 tokyo main 471 471 OOO______OOO__ jtwc_wp WP251975 11.2000 113.200 30 -1 11.0000 114.000 2 1002 0 0 0 10.5000 114.000 2 38 998 11.2000 113.200 TC 30 11.2000 113.200 1 30 11.2000 113.200 30 1002 300 9 308
1975357N07116 1975 147 WP MM NOT_NAMED 1975-12-26 03:00:00 TS 11.0952 113.563 main 477 462 PPP______PPP__ WP251975 11.2900 113.305 30 -1 11.1149 114.007 2 1002 0 0 10.6575 113.655 2 38 998 11.2900 113.305 TC 30 11.3468 113.267 1 30 11.2900 113.305 30 1000 300 4 328
1975357N07116 1975 147 WP MM NOT_NAMED 1975-12-26 06:00:00 TS 11.2512 113.512 1002 tokyo main 459 455 OOO______OPO__ jtwc_wp WP251975 11.4000 113.400 30 -1 11.2000 114.000 2 1002 0 0 0 10.8000 113.400 2 38 998 11.4000 113.400 TC 30 11.4749 113.347 1 30 11.4000 113.400 30 999 300 3 344
1975357N07116 1975 147 WP MM NOT_NAMED 1975-12-26 09:00:00 TS 11.4251 113.477 main 455 452 PPP______PPP__ WP251975 11.5300 113.485 30 -1 11.3651 113.750 2 1000 0 0 11.0299 113.203 2 43 996 11.5300 113.485 TC 30 11.5656 113.454 1 30 11.5300 113.485 30 998 300 3 0
1975357N07116 1975 147 WP MM NOT_NAMED 1975-12-26 12:00:00 TS 11.5167 113.517 998 tokyo main 452 452 OOO______OOO__ jtwc_wp WP251975 11.6000 113.600 30 -1 11.5000 113.500 9 998 0 0 0 11.2000 113.200 3 48 995 11.6000 113.600 TC 30 11.6000 113.600 1 30 11.6000 113.600 30 998 300 2 70
1975357N07116 1975 147 WP MM NOT_NAMED 1975-12-26 15:00:00 TS 11.4951 113.675 main 473 473 PPP______PPP__ WP251975 11.5300 113.778 30 -1 11.5899 113.425 9 998 0 0 11.2251 113.497 3 43 995 11.5300 113.778 TC 30 11.5657 113.793 1 30 11.5300 113.778 30 997 270 4 108
1975357N07116 1975 147 WP MM NOT_NAMED 1975-12-26 18:00:00 TS 11.4040 113.867 998 tokyo main 483 452 OOOO_____OPO__ jtwc_wp WP251975 11.4000 114.000 30 -1 11.5000 113.500 9 998 0 0 0 11.1000 113.900 2 38 995 12.0000 113.000 TD 25 996 11.4000 114.000 TC 30 11.4751 114.020 1 30 11.4000 114.000 30 997 240 5 121
1975357N07116 1975 147 WP MM NOT_NAMED 1975-12-26 21:00:00 TS 11.2380 114.107 main 452 422 PPPP_____PPP__ WP251975 11.3075 114.250 30 -1 11.0725 113.713 9 997 0 0 10.8300 114.195 2 38 995 11.7503 113.545 TD 25 996 11.3075 114.250 TC 30 11.3469 114.262 1 30 11.3075 114.250 30 996 240 6 128
1975357N07116 1975 147 WP MM NOT_NAMED 1975-12-27 00:00:00 TS 11.0296 114.356 996 tokyo main 413 391 OOOO_____OOO__ jtwc_wp WP251975 11.2000 114.500 30 -1 10.6000 114.000 9 996 0 0 0 10.5000 114.400 2 38 995 11.4000 114.000 TD 25 996 11.2000 114.500 TC 30 11.2000 114.500 1 30 11.2000 114.500 30 996 240 6 133
1975357N07116 1975 147 WP MM NOT_NAMED 1975-12-27 03:00:00 TS 10.8317 114.553 main 382 361 PPPP_____PPP__ WP251975 11.0575 114.707 30 -1 10.4500 114.250 9 996 0 0 10.2275 114.472 2 38 995 10.8999 114.302 TD 25 997 11.0575 114.707 TC 30 11.0725 114.723 1 30 11.0575 114.707 30 996 240 6 138
1975357N07116 1975 147 WP MM NOT_NAMED 1975-12-27 06:00:00 TS 10.6186 114.734 996 tokyo main 361 331 OOOO_____OPO__ jtwc_wp WP251975 10.9000 114.900 30 -1 10.3000 114.500 9 996 0 0 0 10.0000 114.500 2 38 995 10.4000 114.500 TD 25 998 10.9000 114.900 TC 30 10.9300 114.938 1 30 10.9000 114.900 30 996 240 6 140
1975357N07116 1975 147 WP MM NOT_NAMED 1975-12-27 09:00:00 TS 10.3893 114.933 main 331 300 PPPP_____PPP__ WP251975 10.7500 115.115 30 -1 9.82754 114.788 9 996 0 0 9.82750 114.592 2 38 995 10.0475 114.672 TD 25 998 10.7500 115.115 TC 30 10.7725 115.133 1 30 10.7500 115.115 30 996 240 6 140
1975357N07116 1975 147 WP MM NOT_NAMED 1975-12-27 12:00:00 TS 10.1857 115.100 996 tokyo main 300 285 OOOO_____OOO__ jtwc_wp WP251975 10.6000 115.300 30 -1 9.40000 115.000 9 996 0 0 0 9.70000 114.700 2 38 995 9.80000 114.800 TD 25 998 10.6000 115.300 TC 30 10.6000 115.300 1 30 10.6000 115.300 30 996 240 4 143
1975357N07116 1975 147 WP MM NOT_NAMED 1975-12-27 15:00:00 TS 10.0495 115.197 main 278 263 PPPP_____PPP__ WP251975 10.4650 115.415 30 -1 9.33245 115.000 9 996 0 0 9.59248 114.785 2 38 995 9.61250 114.915 TD 25 999 10.4650 115.415 TC 30 10.4143 115.437 1 30 10.4650 115.415 30 997 270 3 145
1975357N07116 1975 147 WP MM NOT_NAMED 1975-12-27 18:00:00 TS 9.93070 115.278 996 tokyo main 263 248 OOOO_____OPO__ jtwc_wp WP251975 10.3000 115.500 30 -1 9.40000 115.000 9 996 0 0 0 9.50000 114.900 2 38 995 9.50000 115.000 TD 25 1000 10.3000 115.500 TC 30 10.2149 115.545 1 30 10.3000 115.500 30 998 300 3 142
1975357N07116 1975 147 WP MM NOT_NAMED 1975-12-27 21:00:00 TS 9.78331 115.405 main 248 227 PPPP_____PPP__ WP251975 10.0575 115.615 30 -1 9.43009 115.250 9 998 0 0 9.39250 115.078 2 38 995 9.47997 115.035 TD 25 1000 10.0575 115.615 TC 30 10.0081 115.631 1 30 10.0575 115.615 30 999 300 4 142
1975357N07116 1975 147 WP MM NOT_NAMED 1975-12-28 00:00:00 TS 9.61429 115.529 1000 tokyo main 227 207 OOOO_____OOO__ jtwc_wp WP251975 9.80000 115.700 30 -1 9.40000 115.500 2 1000 0 0 0 9.30000 115.300 2 38 995 9.40000 115.100 TD 25 1000 9.80000 115.700 TC 30 9.80000 115.700 1 30 9.80000 115.700 30 1000 300 4 153
1975357N07116 1975 147 WP MM NOT_NAMED 1975-12-28 03:00:00 TS 9.41360 115.599 main 207 188 PPPP_____PPP__ WP251975 9.59249 115.700 30 -1 9.23747 115.537 2 1000 0 0 9.24250 115.542 2 33 997 9.05000 115.270 TD 25 1000 9.59249 115.700 TC 30 9.58775 115.740 1 30 9.59249 115.700 30 1000 300 4 161
1975357N07116 1975 147 WP MM NOT_NAMED 1975-12-28 06:00:00 TS 9.21106 115.667 1000 tokyo main 188 170 OOOO_____OPO__ jtwc_wp WP251975 9.40000 115.700 30 -1 9.00000 115.500 2 1000 0 0 0 9.20000 115.800 1 29 999 8.70000 115.500 TD 25 1000 9.40000 115.700 TC 30 9.37741 115.770 1 30 9.40000 115.700 30 1001 300 4 156
1975357N07116 1975 147 WP MM NOT_NAMED 1975-12-28 09:00:00 TS 9.03296 115.766 main 170 157 PPPP_____PPP__ WP251975 9.19249 115.770 30 -1 8.71997 115.462 2 1001 0 0 9.14997 116.043 1 29 999 8.60498 115.735 TD 25 1001 9.19249 115.770 TC 30 9.17836 115.815 1 30 9.19249 115.770 30 1001 270 4 143
1975357N07116 1975 147 WP MM NOT_NAMED 1975-12-28 12:00:00 TS 8.88571 115.914 1002 tokyo main 157 133 OOOO_____OOO__ jtwc_wp WP251975 9.00000 115.900 30 -1 8.50000 115.500 2 1002 0 0 0 9.10000 116.300 1 29 999 8.60000 116.000 TD 25 1002 9.00000 115.900 TC 30 9.00000 115.900 1 30 9.00000 115.900 30 1002 240 4 128
1975357N07116 1975 147 WP MM NOT_NAMED 1975-12-28 15:00:00 TS 8.76321 116.118 main 133 108 PPPP_____PPP__ WP251975 8.83501 116.085 30 -1 8.42493 115.675 2 1002 0 0 9.05753 116.607 1 29 999 8.54249 116.293 TD 25 1002 8.83501 116.085 TC 30 8.81250 115.996 1 28 8.83501 116.085 30 1003 240 5 115
1975357N07116 1975 147 WP MM NOT_NAMED 1975-12-28 18:00:00 TS 8.68548 116.355 1002 tokyo main 98 74 OOOO_____OPO__ jtwc_wp WP251975 8.70000 116.300 30 -1 8.50000 116.000 2 1002 0 0 0 9.00000 116.900 1 29 999 8.50000 116.600 TD 25 1002 8.70000 116.300 TC 30 8.65197 116.143 1 27 8.70000 116.300 30 1005 240 5 104
1975357N07116 1975 147 WP MM NOT_NAMED 1975-12-28 21:00:00 TS 8.64467 116.591 main 74 55 PPPP_____PPP__ WP251975 8.58496 116.485 27 -1 8.75006 116.462 2 1002 0 0 8.89995 117.108 1 29 999 8.49004 116.902 TD 25 1002 8.58496 116.485 TC 27 8.54047 116.368 1 26 8.58496 116.485 27 1005 240 5 97
1975357N07116 1975 147 WP MM NOT_NAMED 1975-12-29 00:00:00 TS 8.62800 116.864 1002 tokyo main 44 22 OOOO_____OOO__ jtwc_wp WP251975 8.50000 116.700 25 -1 9.00000 117.000 2 1002 0 0 0 8.80000 117.300 1 29 999 8.50000 117.200 TD 25 1002 8.50000 116.700 TC 25 8.50000 116.700 1 25 8.50000 116.700 25 1006 240 6 96
1975357N07116 1975 147 WP MM NOT_NAMED 1975-12-29 03:00:00 TS 8.58720 117.160 main 11 0 PPP______PPP__ WP251975 8.38970 116.903 25 -1 9.03743 117.500 2 1002 0 0 8.74250 117.542 1 29 999 TD 8.38970 116.903 TC 25 8.57417 117.211 1 25 8.38970 116.903 25 1005 240 7 92
1975357N07116 1975 147 WP MM NOT_NAMED 1975-12-29 06:00:00 TS 8.60226 117.587 1002 tokyo main 11 10 OOO______OPO__ jtwc_wp WP251975 8.40000 117.300 25 -1 9.00000 118.000 2 1002 0 0 0 8.70000 117.800 1 29 999 8.40000 117.300 TC 25 8.71357 117.819 1 25 8.40000 117.300 25 1005 240 11 81
1975357N07116 1975 147 WP MM NOT_NAMED 1975-12-29 09:00:00 TS 8.76429 118.250 main 34 34 PPP______PPP__ WP251975 8.69320 118.157 25 -1 9.00006 118.537 2 1003 0 0 8.63498 118.050 1 29 1000 8.69320 118.157 TC 25 8.87107 118.443 1 25 8.69320 118.157 25 1004 240 13 76
1975357N07116 1975 147 WP MM NOT_NAMED 1975-12-29 12:00:00 TS 8.93333 118.883 1004 tokyo main 70 70 OOO______OOO__ jtwc_wp WP251975 9.00000 119.000 25 -1 9.00000 119.000 2 1004 0 0 0 8.60000 118.300 1 29 1002 9.00000 119.000 TC 25 9.00000 119.000 1 25 9.00000 119.000 25 1004 240 10 78
1975357N07116 1975 147 WP MM NOT_NAMED 1975-12-29 15:00:00 TS 8.96979 119.208 main 86 86 PPP______PPP__ WP251975 9.04461 119.325 25 -1 8.99988 119.287 2 1004 0 0 8.62000 118.558 1 29 1002 9.04461 119.325 TC 25 9.06503 119.429 1 25 9.04461 119.325 25 1004 210 5 87
1975357N07116 1975 147 WP MM NOT_NAMED 1975-12-29 18:00:00 TS 8.96436 119.429 1004 tokyo main 102 102 OOO______OPO__ jtwc_wp WP251975 9.00000 119.500 25 -1 9.00000 119.500 2 1004 0 0 0 8.70000 118.800 1 29 1003 9.00000 119.500 TC 25 9.07427 119.748 1 25 9.00000 119.500 25 1005 180 5 89
1975357N07116 1975 147 WP MM NOT_NAMED 1975-12-29 21:00:00 TS 8.97674 119.700 main 126 126 PPP______PPP__ WP251975 8.98526 119.800 25 -1 8.99998 119.750 2 1005 0 0 8.83501 119.010 1 29 1003 8.98526 119.800 TC 25 9.04641 119.993 1 25 8.98526 119.800 25 1005 150 6 86
1975357N07116 1975 147 WP MM NOT_NAMED 1975-12-30 00:00:00 TS 9.00000 120.000 1006 tokyo main 151 151 OOO______OOO__ jtwc_wp WP251975 9.00000 120.200 25 -1 9.00000 120.000 2 1006 0 0 0 9.00000 119.200 1 29 1004 9.00000 120.200 TC 25 9.00000 120.200 1 25 9.00000 120.200 25 1006 120 5 88
1975357N07116 1975 147 WP MM NOT_NAMED 1975-12-30 03:00:00 TS 9.00003 120.250 main 172 172 _P____________ WP251975 -1 9.00003 120.250 2 1006 0 0 1 TC 1 5 90
1975357N07116 1975 147 WP MM NOT_NAMED 1975-12-30 06:00:00 TS 9.00000 120.500 1006 tokyo main 185 _O____________ -1 9.00000 120.500 2 1006 0 0 0 1 5 90

デジタル台風データ・検索

IBTrACS Databaseについて

本データベースは、米国NOAAが公開する1842年以降の世界の熱帯低気圧のベストトラックデータアーカイブInternational Best Track Archive for Climate Stewardship (IBTrACS)を、ウェブで閲覧しやすい形式に変換したものです。

最終更新日:2021-10-19